createdAt,value
2022-09-27T00:02:05.088Z,3.97
2022-09-27T00:04:35.889Z,3.73
2022-09-27T00:07:04.543Z,3.60
2022-09-27T00:09:33.150Z,3.60
2022-09-27T00:12:02.068Z,3.50
2022-09-27T00:14:31.825Z,3.43
2022-09-27T00:17:01.614Z,3.90
2022-09-27T00:19:30.008Z,3.57
2022-09-27T00:22:01.760Z,3.70
2022-09-27T00:24:29.984Z,2.63
2022-09-27T00:26:59.625Z,2.50
2022-09-27T00:29:28.026Z,2.97
2022-09-27T00:31:56.179Z,2.50
2022-09-27T00:34:29.540Z,3.47
2022-09-27T00:36:57.815Z,3.20
2022-09-27T00:39:27.865Z,2.97
2022-09-27T00:41:56.230Z,3.23
2022-09-27T00:45:01.512Z,3.20
2022-09-27T00:47:35.284Z,3.00
2022-09-27T00:50:10.464Z,3.17
2022-09-27T00:52:46.679Z,3.23
2022-09-27T00:55:21.102Z,3.10
2022-09-27T00:57:50.608Z,3.27
2022-09-27T01:00:19.035Z,3.77
2022-09-27T01:02:51.071Z,3.73
2022-09-27T01:05:22.297Z,3.63
2022-09-27T01:07:50.698Z,3.30
2022-09-27T01:10:23.027Z,3.13
2022-09-27T01:13:00.755Z,3.13
2022-09-27T01:15:40.342Z,2.80
2022-09-27T01:18:29.688Z,3.40
2022-09-27T01:21:36.064Z,2.73
2022-09-27T01:24:37.523Z,2.97
2022-09-27T01:27:56.587Z,2.80
2022-09-27T01:30:30.217Z,2.40
2022-09-27T01:33:12.787Z,2.70
2022-09-27T01:35:59.747Z,2.60
2022-09-27T01:38:35.631Z,2.53
2022-09-27T01:41:11.254Z,2.20
2022-09-27T01:43:53.413Z,2.20
2022-09-27T01:46:27.853Z,2.00
2022-09-27T01:49:00.063Z,2.00
2022-09-27T01:51:35.380Z,2.03
2022-09-27T01:54:07.671Z,2.10
2022-09-27T01:56:41.615Z,2.20
2022-09-27T01:59:14.749Z,2.30
2022-09-27T02:01:47.174Z,2.80
2022-09-27T02:04:19.431Z,2.37
2022-09-27T02:06:54.519Z,2.43
2022-09-27T02:09:29.072Z,2.57
2022-09-27T02:12:05.764Z,2.53
2022-09-27T02:14:41.361Z,2.80
2022-09-27T02:17:21.807Z,2.30
2022-09-27T02:19:57.374Z,2.40
2022-09-27T02:22:37.141Z,2.30
2022-09-27T02:25:13.538Z,2.13
2022-09-27T02:27:48.736Z,2.10
2022-09-27T02:30:18.157Z,2.60
2022-09-27T02:32:48.274Z,2.00
2022-09-27T02:35:21.787Z,2.37
2022-09-27T02:37:50.737Z,2.33
2022-09-27T02:40:20.270Z,2.70
2022-09-27T02:42:49.071Z,2.33
2022-09-27T02:45:20.238Z,2.50
2022-09-27T02:48:03.847Z,2.97
2022-09-27T02:51:04.647Z,2.70
2022-09-27T02:53:43.231Z,2.27
2022-09-27T02:56:19.754Z,2.20
2022-09-27T02:59:00.534Z,2.20
2022-09-27T03:01:36.617Z,2.10
2022-09-27T03:04:15.007Z,2.00
2022-09-27T03:06:47.126Z,1.77
2022-09-27T03:09:20.164Z,1.37
2022-09-27T03:11:49.305Z,1.60
2022-09-27T03:14:18.296Z,1.60
2022-09-27T03:16:46.964Z,1.60
2022-09-27T03:19:19.009Z,1.57
2022-09-27T03:21:47.632Z,1.30
2022-09-27T03:24:16.561Z,1.10
2022-09-27T03:26:44.898Z,1.20
2022-09-27T03:29:13.316Z,1.30
2022-09-27T03:31:42.108Z,1.10
2022-09-27T03:34:10.239Z,1.40
2022-09-27T03:36:40.197Z,1.43
2022-09-27T03:39:08.593Z,1.60
2022-09-27T03:41:36.997Z,1.53
2022-09-27T03:44:07.420Z,1.47
2022-09-27T03:46:38.770Z,1.50
2022-09-27T03:49:08.849Z,1.50
2022-09-27T03:51:37.444Z,1.33
2022-09-27T03:54:07.801Z,1.33
2022-09-27T03:56:36.590Z,1.63
2022-09-27T03:59:04.893Z,1.40
2022-09-27T04:01:35.819Z,1.30
2022-09-27T04:04:08.841Z,1.40
2022-09-27T04:06:39.440Z,1.83
2022-09-27T04:09:09.908Z,1.70
2022-09-27T04:11:39.236Z,1.60
2022-09-27T04:14:09.207Z,1.70
2022-09-27T04:16:37.591Z,1.67
2022-09-27T04:19:05.932Z,1.60
2022-09-27T04:21:34.697Z,1.80
2022-09-27T04:24:05.519Z,1.73
2022-09-27T04:26:35.532Z,1.73
2022-09-27T04:29:04.329Z,1.70
2022-09-27T04:31:32.553Z,1.80
2022-09-27T04:34:03.342Z,2.10
2022-09-27T04:36:30.331Z,1.90
2022-09-27T04:39:00.451Z,1.90
2022-09-27T04:41:30.065Z,1.90
2022-09-27T04:44:01.266Z,1.60
2022-09-27T04:46:31.891Z,1.93
2022-09-27T04:49:01.118Z,2.20
2022-09-27T04:51:30.222Z,2.23
2022-09-27T04:54:00.509Z,2.03
2022-09-27T04:56:28.835Z,1.87
2022-09-27T04:58:57.825Z,1.90
2022-09-27T05:01:30.679Z,2.00
2022-09-27T05:03:58.938Z,2.17
2022-09-27T05:06:27.860Z,2.33
2022-09-27T05:08:56.719Z,2.70
2022-09-27T05:11:25.279Z,2.57
2022-09-27T05:13:54.276Z,2.67
2022-09-27T05:16:22.514Z,2.70
2022-09-27T05:18:52.631Z,2.87
2022-09-27T05:21:20.892Z,3.27
2022-09-27T05:23:49.008Z,2.87
2022-09-27T05:26:17.144Z,3.13
2022-09-27T05:28:47.395Z,3.10
2022-09-27T05:31:16.756Z,3.00
2022-09-27T05:33:45.125Z,3.07
2022-09-27T05:36:15.408Z,3.20
2022-09-27T05:38:43.843Z,3.50
2022-09-27T05:41:13.560Z,3.53
2022-09-27T05:43:41.973Z,3.47
2022-09-27T05:46:10.477Z,3.97
2022-09-27T05:48:38.701Z,3.50
2022-09-27T05:51:07.580Z,3.13
2022-09-27T05:53:38.823Z,3.70
2022-09-27T05:56:07.862Z,2.90
2022-09-27T05:58:36.611Z,2.83
2022-09-27T06:01:08.792Z,2.87
2022-09-27T06:03:37.574Z,2.67
2022-09-27T06:06:07.055Z,2.97
2022-09-27T06:08:38.287Z,2.97
2022-09-27T06:11:08.870Z,2.93
2022-09-27T06:13:39.508Z,2.90
2022-09-27T06:16:10.152Z,3.07
2022-09-27T06:18:39.454Z,3.00
2022-09-27T06:21:08.180Z,3.30
2022-09-27T06:23:37.823Z,3.37
2022-09-27T06:26:08.558Z,3.23
2022-09-27T06:28:37.227Z,3.00
2022-09-27T06:31:08.648Z,3.00
2022-09-27T06:33:37.399Z,2.73
2022-09-27T06:36:08.107Z,3.40
2022-09-27T06:38:40.331Z,2.90
2022-09-27T06:41:09.388Z,2.57
2022-09-27T06:43:38.052Z,2.60
2022-09-27T06:46:06.634Z,2.80
2022-09-27T06:48:37.728Z,2.83
2022-09-27T06:51:07.715Z,2.93
2022-09-27T06:53:38.491Z,2.50
2022-09-27T06:56:07.356Z,2.67
2022-09-27T06:58:53.218Z,2.50
2022-09-27T07:01:21.578Z,2.57
2022-09-27T07:03:52.076Z,2.50
2022-09-27T07:06:23.055Z,2.40
2022-09-27T07:08:54.267Z,2.37
2022-09-27T07:11:23.831Z,2.47
2022-09-27T07:13:52.303Z,2.33
2022-09-27T07:16:21.015Z,2.53
2022-09-27T07:18:50.333Z,2.40
2022-09-27T07:21:18.830Z,2.30
2022-09-27T07:23:48.850Z,2.67
2022-09-27T07:26:18.612Z,2.40
2022-09-27T07:28:51.303Z,2.40
2022-09-27T07:31:20.689Z,3.10
2022-09-27T07:33:49.121Z,3.00
2022-09-27T07:36:17.319Z,2.73
2022-09-27T07:38:46.235Z,2.87
2022-09-27T07:41:16.242Z,3.20
2022-09-27T07:43:46.304Z,3.00
2022-09-27T07:46:16.412Z,3.20
2022-09-27T07:48:48.415Z,2.70
2022-09-27T07:51:17.093Z,2.77
2022-09-27T07:53:45.730Z,2.90
2022-09-27T07:56:15.951Z,3.00
2022-09-27T07:58:48.728Z,2.73
2022-09-27T08:01:17.340Z,2.90
2022-09-27T08:03:47.084Z,2.80
2022-09-27T08:06:15.597Z,2.97
2022-09-27T08:08:51.551Z,3.27
2022-09-27T08:11:22.495Z,2.77
2022-09-27T08:13:53.832Z,2.70
2022-09-27T08:16:22.458Z,3.10
2022-09-27T08:18:51.457Z,3.20
2022-09-27T08:21:19.713Z,2.70
2022-09-27T08:23:47.885Z,2.50
2022-09-27T08:26:17.769Z,2.33
2022-09-27T08:28:46.688Z,2.40
2022-09-27T08:31:16.796Z,2.37
2022-09-27T08:33:50.738Z,2.43
2022-09-27T08:36:20.819Z,2.53
2022-09-27T08:38:51.546Z,2.70
2022-09-27T08:41:30.821Z,2.23
2022-09-27T08:44:13.637Z,2.63
2022-09-27T08:46:55.868Z,2.50
2022-09-27T08:49:28.517Z,2.70
2022-09-27T08:52:01.327Z,2.70
2022-09-27T08:54:33.000Z,2.40
2022-09-27T08:57:05.285Z,2.50
2022-09-27T08:59:41.529Z,2.40
2022-09-27T09:02:19.888Z,2.60
2022-09-27T09:04:54.353Z,2.67
2022-09-27T09:07:38.058Z,2.43
2022-09-27T09:10:40.948Z,2.63
2022-09-27T09:13:18.255Z,2.70
2022-09-27T09:15:58.686Z,2.20
2022-09-27T09:18:42.564Z,2.70
2022-09-27T09:21:20.651Z,2.40
2022-09-27T09:24:00.350Z,2.13
2022-09-27T09:26:37.481Z,2.30
2022-09-27T09:29:19.186Z,2.13
2022-09-27T09:31:59.750Z,2.23
2022-09-27T09:34:37.286Z,2.40
2022-09-27T09:37:12.622Z,2.53
2022-09-27T09:39:46.796Z,2.20
2022-09-27T09:42:20.108Z,2.10
2022-09-27T09:44:54.380Z,2.07
2022-09-27T09:47:31.473Z,1.70
2022-09-27T09:50:04.927Z,1.90
2022-09-27T09:52:41.444Z,1.67
2022-09-27T09:55:19.360Z,1.50
2022-09-27T09:58:02.437Z,1.70
2022-09-27T10:00:30.762Z,1.70
2022-09-27T10:03:01.570Z,1.33
2022-09-27T10:05:31.357Z,1.40
2022-09-27T10:08:02.471Z,1.27
2022-09-27T10:10:33.981Z,1.30
2022-09-27T10:13:04.955Z,1.00
2022-09-27T10:15:36.585Z,1.20
2022-09-27T10:18:05.089Z,1.23
2022-09-27T10:20:45.923Z,1.10
2022-09-27T10:23:19.709Z,1.50
2022-09-27T10:25:54.415Z,1.10
2022-09-27T10:28:33.069Z,1.10
2022-09-27T10:31:04.559Z,1.30
2022-09-27T10:33:33.896Z,1.10
2022-09-27T10:36:05.317Z,1.10
2022-09-27T10:38:38.976Z,1.20
2022-09-27T10:41:26.274Z,1.30
2022-09-27T10:43:55.180Z,1.10
2022-09-27T10:46:29.075Z,1.20
2022-09-27T10:49:23.188Z,1.10
2022-09-27T10:51:56.263Z,0.83
2022-09-27T10:54:27.964Z,0.90
2022-09-27T10:56:58.806Z,0.80
2022-09-27T10:59:30.840Z,0.87
2022-09-27T11:02:00.379Z,0.87
2022-09-27T11:04:33.643Z,0.63
2022-09-27T11:07:16.712Z,0.87
2022-09-27T11:09:54.867Z,1.13
2022-09-27T11:12:25.516Z,0.90
2022-09-27T11:14:59.866Z,1.00
2022-09-27T11:17:33.996Z,0.97
2022-09-27T11:20:16.556Z,0.90
2022-09-27T11:23:16.825Z,1.20
2022-09-27T11:26:01.680Z,0.90
2022-09-27T11:28:39.508Z,1.10
2022-09-27T11:31:20.230Z,0.87
2022-09-27T11:34:11.076Z,0.70
2022-09-27T11:36:54.692Z,0.80
2022-09-27T11:39:31.374Z,0.90
2022-09-27T11:42:23.958Z,1.10
2022-09-27T11:45:34.232Z,1.13
2022-09-27T11:48:12.994Z,2.90
2022-09-27T11:51:11.720Z,4.07
2022-09-27T11:54:00.857Z,0.70
2022-09-27T11:56:41.952Z,0.70
2022-09-27T11:59:57.911Z,0.70
2022-09-27T12:02:43.191Z,0.60
2022-09-27T12:05:26.704Z,0.70
2022-09-27T12:08:09.958Z,0.80
2022-09-27T12:10:42.919Z,0.93
2022-09-27T12:13:21.789Z,0.90
2022-09-27T12:15:53.818Z,1.40
2022-09-27T12:18:32.668Z,0.90
2022-09-27T12:21:04.045Z,0.87
2022-09-27T12:23:41.841Z,1.33
2022-09-27T12:26:19.337Z,1.10
2022-09-27T12:29:02.284Z,1.10
2022-09-27T12:31:37.411Z,1.93
2022-09-27T12:34:20.040Z,1.40
2022-09-27T12:36:53.520Z,1.00
2022-09-27T12:39:29.294Z,0.80
2022-09-27T12:42:06.600Z,0.90
2022-09-27T12:44:41.013Z,0.90
2022-09-27T12:47:19.604Z,0.90
2022-09-27T12:49:56.464Z,0.60
2022-09-27T12:52:33.718Z,0.90
2022-09-27T12:55:24.795Z,0.70
2022-09-27T12:58:16.677Z,1.00
2022-09-27T13:00:58.332Z,0.73
2022-09-27T13:03:53.064Z,0.67
2022-09-27T13:06:53.316Z,0.80
2022-09-27T13:10:03.410Z,0.70
2022-09-27T13:12:36.695Z,0.90
2022-09-27T13:15:09.013Z,0.97
2022-09-27T13:17:56.408Z,0.70
2022-09-27T13:20:46.457Z,0.80
2022-09-27T13:23:52.279Z,1.20
2022-09-27T13:26:41.839Z,1.10
2022-09-27T13:29:26.598Z,1.20
2022-09-27T13:32:20.950Z,0.80
2022-09-27T13:34:53.894Z,0.70
2022-09-27T13:37:53.161Z,0.70
2022-09-27T13:40:36.489Z,0.60
2022-09-27T13:43:34.604Z,0.50
2022-09-27T13:46:08.053Z,4.80
2022-09-27T13:48:48.360Z,3.07
2022-09-27T13:51:26.184Z,0.63
2022-09-27T13:53:59.830Z,1.57
2022-09-27T13:56:52.501Z,0.53
2022-09-27T13:59:26.456Z,0.70
2022-09-27T14:02:02.211Z,0.67
2022-09-27T14:04:35.514Z,2.40
2022-09-27T14:07:06.824Z,1.30
2022-09-27T14:09:40.686Z,1.37
2022-09-27T14:12:13.477Z,6.80
2022-09-27T14:14:44.624Z,1.50
2022-09-27T14:17:13.351Z,1.00
2022-09-27T14:19:44.086Z,0.87
2022-09-27T14:22:20.557Z,0.73
2022-09-27T14:24:51.644Z,0.90
2022-09-27T14:27:21.651Z,0.90
2022-09-27T14:29:53.541Z,0.80
2022-09-27T14:32:23.821Z,4.40
2022-09-27T14:35:34.113Z,5.17
2022-09-27T14:38:20.771Z,0.77
2022-09-27T14:41:01.024Z,0.93
2022-09-27T14:43:32.328Z,0.73
2022-09-27T14:46:03.189Z,0.90
2022-09-27T14:48:35.599Z,0.90
2022-09-27T14:51:11.914Z,0.80
2022-09-27T14:53:47.867Z,1.00
2022-09-27T14:56:19.657Z,0.80
2022-09-27T14:58:48.602Z,0.90
2022-09-27T15:01:19.747Z,0.90
2022-09-27T15:03:50.348Z,1.90
2022-09-27T15:06:20.243Z,2.97
2022-09-27T15:08:50.505Z,1.90
2022-09-27T15:11:20.011Z,3.40
2022-09-27T15:13:54.017Z,2.73
2022-09-27T15:16:27.071Z,2.40
2022-09-27T15:19:03.816Z,1.90
2022-09-27T15:21:36.633Z,1.77
2022-09-27T15:24:07.590Z,3.47
2022-09-27T15:26:39.613Z,1.30
2022-09-27T15:29:08.723Z,1.73
2022-09-27T15:31:38.761Z,1.07
2022-09-27T15:34:13.714Z,1.10
2022-09-27T15:36:56.612Z,1.00
2022-09-27T15:39:32.566Z,1.17
2022-09-27T15:42:08.425Z,1.40
2022-09-27T15:44:39.894Z,1.00
2022-09-27T15:47:56.711Z,1.40
2022-09-27T15:50:38.975Z,1.10
2022-09-27T15:53:08.048Z,1.17
2022-09-27T15:55:43.721Z,1.20
2022-09-27T15:58:17.246Z,1.10
2022-09-27T16:00:55.796Z,1.37
2022-09-27T16:03:24.890Z,1.30
2022-09-27T16:05:56.272Z,1.20
2022-09-27T16:08:24.525Z,1.47
2022-09-27T16:11:02.607Z,1.10
2022-09-27T16:13:33.186Z,1.20
2022-09-27T16:16:03.360Z,1.17
2022-09-27T16:18:31.951Z,1.10
2022-09-27T16:21:02.701Z,1.00
2022-09-27T16:23:32.150Z,0.90
2022-09-27T16:26:03.174Z,1.10
2022-09-27T16:28:36.031Z,1.20
2022-09-27T16:31:08.067Z,1.40
2022-09-27T16:33:37.028Z,10.83
2022-09-27T16:36:09.429Z,4.50
2022-09-27T16:38:39.416Z,2.93
2022-09-27T16:41:09.156Z,3.77
2022-09-27T16:43:37.668Z,1.40
2022-09-27T16:46:11.931Z,3.03
2022-09-27T16:48:40.815Z,2.10
2022-09-27T16:51:31.544Z,2.70
2022-09-27T16:54:00.448Z,2.30
2022-09-27T16:56:32.365Z,2.23
2022-09-27T16:59:03.136Z,1.57
2022-09-27T17:01:31.843Z,1.60
2022-09-27T17:04:00.759Z,1.03
2022-09-27T17:06:32.114Z,1.20
2022-09-27T17:09:03.888Z,1.20
2022-09-27T17:11:34.263Z,1.40
2022-09-27T17:14:02.763Z,1.50
2022-09-27T17:16:31.458Z,1.43
2022-09-27T17:19:00.915Z,1.40
2022-09-27T17:21:30.403Z,1.53
2022-09-27T17:24:03.349Z,1.60
2022-09-27T17:26:33.945Z,1.83
2022-09-27T17:29:04.593Z,2.13
2022-09-27T17:31:35.432Z,3.67
2022-09-27T17:34:04.451Z,3.90
2022-09-27T17:36:34.993Z,11.57
2022-09-27T17:39:03.593Z,1.90
2022-09-27T17:41:39.594Z,9.47
2022-09-27T17:44:14.365Z,2.80
2022-09-27T17:46:44.233Z,2.87
2022-09-27T17:49:30.179Z,15.60
2022-09-27T17:52:01.567Z,12.20
2022-09-27T17:54:29.706Z,3.70
2022-09-27T17:56:58.289Z,6.60
2022-09-27T17:59:30.952Z,5.80
2022-09-27T18:01:59.570Z,4.67
2022-09-27T18:04:29.733Z,6.00
2022-09-27T18:06:58.079Z,4.17
2022-09-27T18:09:28.925Z,5.33
2022-09-27T18:11:57.294Z,4.43
2022-09-27T18:14:26.810Z,3.37
2022-09-27T18:17:02.320Z,6.47
2022-09-27T18:19:33.086Z,5.97
2022-09-27T18:22:02.807Z,5.60
2022-09-27T18:24:32.165Z,4.13
2022-09-27T18:27:01.459Z,2.90
2022-09-27T18:29:32.920Z,2.70
2022-09-27T18:32:03.378Z,2.50
2022-09-27T18:34:31.800Z,2.70
2022-09-27T18:37:00.274Z,2.83
2022-09-27T18:39:28.589Z,2.40
2022-09-27T18:41:57.466Z,2.10
2022-09-27T18:44:25.655Z,2.37
2022-09-27T18:46:54.267Z,2.67
2022-09-27T18:49:33.004Z,3.73
2022-09-27T18:52:05.300Z,3.60
2022-09-27T18:54:33.642Z,4.03
2022-09-27T18:57:02.338Z,4.00
2022-09-27T18:59:30.935Z,4.13
2022-09-27T19:01:59.652Z,3.70
2022-09-27T19:04:31.134Z,3.20
2022-09-27T19:06:59.862Z,2.93
2022-09-27T19:09:28.514Z,2.57
2022-09-27T19:11:56.973Z,3.03
2022-09-27T19:14:24.985Z,3.40
2022-09-27T19:16:54.161Z,3.63
2022-09-27T19:19:24.470Z,2.80
2022-09-27T19:21:54.210Z,2.80
2022-09-27T19:24:22.649Z,2.63
2022-09-27T19:26:53.798Z,2.57
2022-09-27T19:29:22.166Z,2.67
2022-09-27T19:31:50.595Z,2.33
2022-09-27T19:34:19.064Z,2.20
2022-09-27T19:36:50.036Z,2.07
2022-09-27T19:39:20.834Z,1.83
2022-09-27T19:41:48.964Z,2.47
2022-09-27T19:44:17.468Z,3.50
2022-09-27T19:46:46.744Z,2.37
2022-09-27T19:49:15.237Z,3.00
2022-09-27T19:51:43.746Z,1.70
2022-09-27T19:54:13.006Z,2.10
2022-09-27T19:56:42.957Z,2.00
2022-09-27T19:59:12.471Z,1.50
2022-09-27T20:01:42.344Z,3.00
2022-09-27T20:04:13.714Z,3.37
2022-09-27T20:06:42.399Z,2.23
2022-09-27T20:09:14.192Z,2.93
2022-09-27T20:11:45.991Z,2.10
2022-09-27T20:14:14.255Z,2.30
2022-09-27T20:16:42.506Z,2.90
2022-09-27T20:19:12.856Z,2.90
2022-09-27T20:21:42.150Z,3.10
2022-09-27T20:24:11.114Z,3.57
2022-09-27T20:26:40.194Z,2.70
2022-09-27T20:29:12.855Z,2.90
2022-09-27T20:31:56.968Z,2.93
2022-09-27T20:34:32.477Z,3.80
2022-09-27T20:37:00.883Z,3.30
2022-09-27T20:39:32.525Z,2.90
2022-09-27T20:42:01.375Z,2.70
2022-09-27T20:44:32.108Z,4.80
2022-09-27T20:47:00.618Z,3.03
2022-09-27T20:49:29.544Z,2.60
2022-09-27T20:51:58.472Z,2.70
2022-09-27T20:54:27.114Z,3.37
2022-09-27T20:56:55.527Z,2.90
2022-09-27T20:59:24.680Z,2.90
2022-09-27T21:01:55.046Z,2.73
2022-09-27T21:04:23.980Z,2.60
2022-09-27T21:06:53.063Z,3.47
2022-09-27T21:09:23.008Z,3.40
2022-09-27T21:11:55.095Z,4.37
2022-09-27T21:14:23.457Z,4.30
2022-09-27T21:16:54.258Z,4.73
2022-09-27T21:19:24.448Z,5.53
2022-09-27T21:21:53.404Z,7.43
2022-09-27T21:24:21.776Z,7.30
2022-09-27T21:26:50.632Z,6.97
2022-09-27T21:29:20.187Z,5.70
2022-09-27T21:31:49.734Z,5.97
2022-09-27T21:34:18.069Z,5.90
2022-09-27T21:36:47.859Z,6.43
2022-09-27T21:39:17.605Z,6.63
2022-09-27T21:41:46.312Z,5.83
2022-09-27T21:44:15.122Z,4.73
2022-09-27T21:46:44.206Z,4.57
2022-09-27T21:49:12.717Z,4.53
2022-09-27T21:51:44.710Z,4.90
2022-09-27T21:54:17.102Z,4.70
2022-09-27T21:56:45.994Z,4.30
2022-09-27T21:59:20.443Z,4.30
2022-09-27T22:01:49.086Z,4.77
2022-09-27T22:04:18.673Z,4.50
2022-09-27T22:06:47.503Z,4.47
2022-09-27T22:09:18.876Z,4.00
2022-09-27T22:11:47.958Z,4.13
2022-09-27T22:14:18.007Z,3.77
2022-09-27T22:16:46.956Z,3.13
2022-09-27T22:19:18.256Z,3.47
2022-09-27T22:21:47.122Z,3.10
2022-09-27T22:24:19.458Z,3.10
2022-09-27T22:26:50.574Z,3.30
2022-09-27T22:29:19.455Z,3.20
2022-09-27T22:31:48.148Z,3.27
2022-09-27T22:34:29.041Z,3.07
2022-09-27T22:36:59.195Z,2.77
2022-09-27T22:39:29.668Z,2.70
2022-09-27T22:41:58.368Z,3.30
2022-09-27T22:44:28.790Z,3.60
2022-09-27T22:46:56.945Z,3.70
2022-09-27T22:49:25.566Z,3.30
2022-09-27T22:51:53.998Z,3.10
2022-09-27T22:54:22.340Z,3.83
2022-09-27T22:56:57.526Z,4.17
2022-09-27T22:59:26.311Z,3.80
2022-09-27T23:01:55.116Z,4.23
2022-09-27T23:04:23.576Z,4.30
2022-09-27T23:06:51.865Z,4.03
2022-09-27T23:09:20.180Z,4.30
2022-09-27T23:11:48.564Z,4.57
2022-09-27T23:14:21.120Z,4.67
2022-09-27T23:16:49.856Z,4.43
2022-09-27T23:19:20.452Z,4.60
2022-09-27T23:21:48.580Z,5.10
2022-09-27T23:24:17.289Z,4.57
2022-09-27T23:27:06.253Z,4.63
2022-09-27T23:29:36.737Z,4.70
2022-09-27T23:32:05.855Z,5.23
2022-09-27T23:34:34.871Z,5.17
2022-09-27T23:37:03.296Z,5.17
2022-09-27T23:39:32.061Z,5.60
2022-09-27T23:42:01.102Z,5.47
2022-09-27T23:44:29.459Z,5.37
2022-09-27T23:47:02.576Z,6.37
2022-09-27T23:49:31.438Z,6.27
2022-09-27T23:52:01.014Z,6.77
2022-09-27T23:54:29.668Z,7.27
2022-09-27T23:57:00.474Z,6.80
2022-09-27T23:59:28.972Z,7.20
